sensor_id;sensor_type;location;lat;lon;timestamp;temperature;humidity
8541;DHT22;4308;51.294;6.590;2024-03-06T00:00:12;5.00;99.90
8541;DHT22;4308;51.294;6.590;2024-03-06T00:02:40;5.00;99.90
8541;DHT22;4308;51.294;6.590;2024-03-06T00:05:07;5.00;99.90
8541;DHT22;4308;51.294;6.590;2024-03-06T00:07:35;5.00;99.90
8541;DHT22;4308;51.294;6.590;2024-03-06T00:10:03;5.00;99.90
8541;DHT22;4308;51.294;6.590;2024-03-06T00:12:31;4.90;99.90
8541;DHT22;4308;51.294;6.590;2024-03-06T00:14:58;4.90;99.90
8541;DHT22;4308;51.294;6.590;2024-03-06T00:17:26;4.80;99.90
8541;DHT22;4308;51.294;6.590;2024-03-06T00:19:53;4.70;99.90
8541;DHT22;4308;51.294;6.590;2024-03-06T00:22:20;4.60;99.90
8541;DHT22;4308;51.294;6.590;2024-03-06T00:24:51;4.50;99.90
8541;DHT22;4308;51.294;6.590;2024-03-06T00:27:18;4.50;99.90
8541;DHT22;4308;51.294;6.590;2024-03-06T00:29:46;4.50;99.90
8541;DHT22;4308;51.294;6.590;2024-03-06T00:32:14;4.40;99.90
8541;DHT22;4308;51.294;6.590;2024-03-06T00:34:41;4.30;99.90
8541;DHT22;4308;51.294;6.590;2024-03-06T00:37:08;4.40;99.90
8541;DHT22;4308;51.294;6.590;2024-03-06T00:39:36;4.30;99.90
8541;DHT22;4308;51.294;6.590;2024-03-06T00:42:03;4.20;99.90
8541;DHT22;4308;51.294;6.590;2024-03-06T00:44:30;4.20;99.90
8541;DHT22;4308;51.294;6.590;2024-03-06T00:46:58;4.20;99.90
8541;DHT22;4308;51.294;6.590;2024-03-06T00:49:25;4.20;99.90
8541;DHT22;4308;51.294;6.590;2024-03-06T00:51:52;4.00;99.90
8541;DHT22;4308;51.294;6.590;2024-03-06T00:54:20;4.00;99.90
8541;DHT22;4308;51.294;6.590;2024-03-06T00:56:47;4.00;99.90
8541;DHT22;4308;51.294;6.590;2024-03-06T00:59:14;4.00;99.90
8541;DHT22;4308;51.294;6.590;2024-03-06T01:01:43;4.00;99.90
8541;DHT22;4308;51.294;6.590;2024-03-06T01:04:10;4.10;99.90
8541;DHT22;4308;51.294;6.590;2024-03-06T01:06:38;4.00;99.90
8541;DHT22;4308;51.294;6.590;2024-03-06T01:09:05;3.90;99.90
8541;DHT22;4308;51.294;6.590;2024-03-06T01:11:32;4.10;99.90
8541;DHT22;4308;51.294;6.590;2024-03-06T01:14:00;3.90;99.90
8541;DHT22;4308;51.294;6.590;2024-03-06T01:16:27;3.80;99.90
8541;DHT22;4308;51.294;6.590;2024-03-06T01:18:54;4.00;99.90
8541;DHT22;4308;51.294;6.590;2024-03-06T01:21:22;3.80;99.90
8541;DHT22;4308;51.294;6.590;2024-03-06T01:23:49;3.90;99.90
8541;DHT22;4308;51.294;6.590;2024-03-06T01:26:16;3.90;99.90
8541;DHT22;4308;51.294;6.590;2024-03-06T01:28:44;4.00;99.90
8541;DHT22;4308;51.294;6.590;2024-03-06T01:31:11;4.00;99.90
8541;DHT22;4308;51.294;6.590;2024-03-06T01:33:38;4.10;99.90
8541;DHT22;4308;51.294;6.590;2024-03-06T01:36:05;4.10;99.90
8541;DHT22;4308;51.294;6.590;2024-03-06T01:38:33;4.10;99.90
8541;DHT22;4308;51.294;6.590;2024-03-06T01:41:00;4.20;99.90
8541;DHT22;4308;51.294;6.590;2024-03-06T01:43:28;4.30;99.90
8541;DHT22;4308;51.294;6.590;2024-03-06T01:45:55;4.30;99.90
8541;DHT22;4308;51.294;6.590;2024-03-06T01:48:27;4.40;99.90
8541;DHT22;4308;51.294;6.590;2024-03-06T01:50:56;4.50;99.90
8541;DHT22;4308;51.294;6.590;2024-03-06T01:53:25;4.60;99.90
8541;DHT22;4308;51.294;6.590;2024-03-06T01:55:54;4.70;99.90
8541;DHT22;4308;51.294;6.590;2024-03-06T01:58:23;4.70;99.90
8541;DHT22;4308;51.294;6.590;2024-03-06T02:00:51;4.80;99.90
8541;DHT22;4308;51.294;6.590;2024-03-06T02:03:19;4.80;99.90
8541;DHT22;4308;51.294;6.590;2024-03-06T02:05:49;4.90;99.90
8541;DHT22;4308;51.294;6.590;2024-03-06T02:08:17;4.90;99.90
8541;DHT22;4308;51.294;6.590;2024-03-06T02:10:45;5.00;99.90
8541;DHT22;4308;51.294;6.590;2024-03-06T02:13:13;5.00;99.90
8541;DHT22;4308;51.294;6.590;2024-03-06T02:15:41;5.20;99.90
8541;DHT22;4308;51.294;6.590;2024-03-06T02:18:09;5.10;99.90
8541;DHT22;4308;51.294;6.590;2024-03-06T02:20:40;5.20;99.90
8541;DHT22;4308;51.294;6.590;2024-03-06T02:23:08;5.20;99.90
8541;DHT22;4308;51.294;6.590;2024-03-06T02:25:35;5.30;99.90
8541;DHT22;4308;51.294;6.590;2024-03-06T02:28:04;5.30;99.90
8541;DHT22;4308;51.294;6.590;2024-03-06T02:30:31;5.40;99.90
8541;DHT22;4308;51.294;6.590;2024-03-06T02:32:58;5.40;99.90
8541;DHT22;4308;51.294;6.590;2024-03-06T02:35:26;5.40;99.90
8541;DHT22;4308;51.294;6.590;2024-03-06T02:37:53;5.50;99.90
8541;DHT22;4308;51.294;6.590;2024-03-06T02:40:21;5.40;99.90
8541;DHT22;4308;51.294;6.590;2024-03-06T02:42:48;5.50;99.90
8541;DHT22;4308;51.294;6.590;2024-03-06T02:45:15;5.60;99.90
8541;DHT22;4308;51.294;6.590;2024-03-06T02:47:44;5.50;99.90
8541;DHT22;4308;51.294;6.590;2024-03-06T02:50:12;5.40;99.90
8541;DHT22;4308;51.294;6.590;2024-03-06T02:52:40;5.30;99.90
8541;DHT22;4308;51.294;6.590;2024-03-06T02:55:07;5.30;99.90
8541;DHT22;4308;51.294;6.590;2024-03-06T02:57:35;5.30;99.90
8541;DHT22;4308;51.294;6.590;2024-03-06T03:00:03;5.30;99.90
8541;DHT22;4308;51.294;6.590;2024-03-06T03:02:32;5.30;99.90
8541;DHT22;4308;51.294;6.590;2024-03-06T03:04:59;5.30;99.90
8541;DHT22;4308;51.294;6.590;2024-03-06T03:07:27;5.20;99.90
8541;DHT22;4308;51.294;6.590;2024-03-06T03:09:54;5.30;99.90
8541;DHT22;4308;51.294;6.590;2024-03-06T03:12:21;5.20;99.90
8541;DHT22;4308;51.294;6.590;2024-03-06T03:14:48;5.20;99.90
8541;DHT22;4308;51.294;6.590;2024-03-06T03:17:20;4.90;99.90
8541;DHT22;4308;51.294;6.590;2024-03-06T03:19:47;4.80;99.90
8541;DHT22;4308;51.294;6.590;2024-03-06T03:22:14;4.60;99.90
8541;DHT22;4308;51.294;6.590;2024-03-06T03:24:42;4.60;99.90
8541;DHT22;4308;51.294;6.590;2024-03-06T03:27:09;4.60;99.90
8541;DHT22;4308;51.294;6.590;2024-03-06T03:29:36;4.30;99.90
8541;DHT22;4308;51.294;6.590;2024-03-06T03:32:04;4.30;99.90
8541;DHT22;4308;51.294;6.590;2024-03-06T03:34:34;4.10;99.90
8541;DHT22;4308;51.294;6.590;2024-03-06T03:37:01;4.10;99.90
8541;DHT22;4308;51.294;6.590;2024-03-06T03:39:28;4.00;99.90
8541;DHT22;4308;51.294;6.590;2024-03-06T03:41:56;3.90;99.90
8541;DHT22;4308;51.294;6.590;2024-03-06T03:44:23;3.90;99.90
8541;DHT22;4308;51.294;6.590;2024-03-06T03:46:51;3.80;99.90
8541;DHT22;4308;51.294;6.590;2024-03-06T03:49:18;3.70;99.90
8541;DHT22;4308;51.294;6.590;2024-03-06T03:51:46;3.90;99.90
8541;DHT22;4308;51.294;6.590;2024-03-06T03:54:13;3.70;99.90
8541;DHT22;4308;51.294;6.590;2024-03-06T03:56:40;3.70;99.90
8541;DHT22;4308;51.294;6.590;2024-03-06T03:59:07;3.60;99.90
8541;DHT22;4308;51.294;6.590;2024-03-06T04:01:37;3.60;99.90
8541;DHT22;4308;51.294;6.590;2024-03-06T04:04:05;3.60;99.90
8541;DHT22;4308;51.294;6.590;2024-03-06T04:06:32;3.50;99.90
8541;DHT22;4308;51.294;6.590;2024-03-06T04:09:00;3.60;99.90
8541;DHT22;4308;51.294;6.590;2024-03-06T04:11:27;3.60;99.90
8541;DHT22;4308;51.294;6.590;2024-03-06T04:13:55;3.40;99.90
8541;DHT22;4308;51.294;6.590;2024-03-06T04:16:22;3.60;99.90
8541;DHT22;4308;51.294;6.590;2024-03-06T04:18:49;3.40;99.90
8541;DHT22;4308;51.294;6.590;2024-03-06T04:21:17;3.30;99.90
8541;DHT22;4308;51.294;6.590;2024-03-06T04:23:44;3.30;99.90
8541;DHT22;4308;51.294;6.590;2024-03-06T04:26:11;3.40;99.90
8541;DHT22;4308;51.294;6.590;2024-03-06T04:28:39;3.20;99.90
8541;DHT22;4308;51.294;6.590;2024-03-06T04:31:07;3.20;99.90
8541;DHT22;4308;51.294;6.590;2024-03-06T04:33:35;3.40;99.90
8541;DHT22;4308;51.294;6.590;2024-03-06T04:36:03;3.30;99.90
8541;DHT22;4308;51.294;6.590;2024-03-06T04:38:31;3.30;99.90
8541;DHT22;4308;51.294;6.590;2024-03-06T04:40:58;3.20;99.90
8541;DHT22;4308;51.294;6.590;2024-03-06T04:43:26;3.30;99.90
8541;DHT22;4308;51.294;6.590;2024-03-06T04:45:53;3.20;99.90
8541;DHT22;4308;51.294;6.590;2024-03-06T04:48:21;3.20;99.90
8541;DHT22;4308;51.294;6.590;2024-03-06T04:50:49;3.20;99.90
8541;DHT22;4308;51.294;6.590;2024-03-06T04:53:16;3.20;99.90
8541;DHT22;4308;51.294;6.590;2024-03-06T04:55:43;3.10;99.90
8541;DHT22;4308;51.294;6.590;2024-03-06T04:58:12;3.00;99.90
8541;DHT22;4308;51.294;6.590;2024-03-06T05:00:39;3.10;99.90
8541;DHT22;4308;51.294;6.590;2024-03-06T05:03:07;3.10;99.90
8541;DHT22;4308;51.294;6.590;2024-03-06T05:05:52;3.10;99.90
8541;DHT22;4308;51.294;6.590;2024-03-06T05:08:37;2.90;99.90
8541;DHT22;4308;51.294;6.590;2024-03-06T05:11:22;3.00;99.90
8541;DHT22;4308;51.294;6.590;2024-03-06T05:14:07;2.90;99.90
8541;DHT22;4308;51.294;6.590;2024-03-06T05:16:52;2.90;99.90
8541;DHT22;4308;51.294;6.590;2024-03-06T05:19:37;2.80;99.90
8541;DHT22;4308;51.294;6.590;2024-03-06T05:22:22;2.80;99.90
8541;DHT22;4308;51.294;6.590;2024-03-06T05:25:07;2.80;99.90
8541;DHT22;4308;51.294;6.590;2024-03-06T05:27:52;2.80;99.90
8541;DHT22;4308;51.294;6.590;2024-03-06T05:30:37;2.70;99.90
8541;DHT22;4308;51.294;6.590;2024-03-06T05:33:22;2.70;99.90
8541;DHT22;4308;51.294;6.590;2024-03-06T05:36:07;2.80;99.90
8541;DHT22;4308;51.294;6.590;2024-03-06T05:38:52;2.80;99.90
8541;DHT22;4308;51.294;6.590;2024-03-06T05:41:37;2.70;99.90
8541;DHT22;4308;51.294;6.590;2024-03-06T05:44:21;2.70;99.90
8541;DHT22;4308;51.294;6.590;2024-03-06T05:47:07;2.80;99.90
8541;DHT22;4308;51.294;6.590;2024-03-06T05:49:52;2.80;99.90
8541;DHT22;4308;51.294;6.590;2024-03-06T05:52:37;2.80;99.90
8541;DHT22;4308;51.294;6.590;2024-03-06T05:55:22;2.80;99.90
8541;DHT22;4308;51.294;6.590;2024-03-06T05:58:07;2.70;99.90
8541;DHT22;4308;51.294;6.590;2024-03-06T06:00:35;2.70;99.90
8541;DHT22;4308;51.294;6.590;2024-03-06T06:03:03;2.70;99.90
8541;DHT22;4308;51.294;6.590;2024-03-06T06:05:30;2.80;99.90
8541;DHT22;4308;51.294;6.590;2024-03-06T06:07:57;2.70;99.90
8541;DHT22;4308;51.294;6.590;2024-03-06T06:10:25;2.90;99.90
8541;DHT22;4308;51.294;6.590;2024-03-06T06:12:52;2.70;99.90
8541;DHT22;4308;51.294;6.590;2024-03-06T06:15:19;2.80;99.90
8541;DHT22;4308;51.294;6.590;2024-03-06T06:17:49;2.90;99.90
8541;DHT22;4308;51.294;6.590;2024-03-06T06:20:17;2.70;99.90
8541;DHT22;4308;51.294;6.590;2024-03-06T06:22:44;2.70;99.90
8541;DHT22;4308;51.294;6.590;2024-03-06T06:25:12;2.80;99.90
8541;DHT22;4308;51.294;6.590;2024-03-06T06:27:39;2.70;99.90
8541;DHT22;4308;51.294;6.590;2024-03-06T06:30:07;2.80;99.90
8541;DHT22;4308;51.294;6.590;2024-03-06T06:32:35;2.90;99.90
8541;DHT22;4308;51.294;6.590;2024-03-06T06:35:02;3.00;99.90
8541;DHT22;4308;51.294;6.590;2024-03-06T06:37:30;3.00;99.90
8541;DHT22;4308;51.294;6.590;2024-03-06T06:39:57;3.00;99.90
8541;DHT22;4308;51.294;6.590;2024-03-06T06:42:24;3.00;99.90
8541;DHT22;4308;51.294;6.590;2024-03-06T06:44:52;3.10;99.90
8541;DHT22;4308;51.294;6.590;2024-03-06T06:47:19;3.30;99.90
8541;DHT22;4308;51.294;6.590;2024-03-06T06:49:46;3.40;99.90
8541;DHT22;4308;51.294;6.590;2024-03-06T06:52:14;3.30;99.90
8541;DHT22;4308;51.294;6.590;2024-03-06T06:54:41;3.40;99.90
8541;DHT22;4308;51.294;6.590;2024-03-06T06:57:08;3.40;99.90
8541;DHT22;4308;51.294;6.590;2024-03-06T06:59:36;3.60;99.90
8541;DHT22;4308;51.294;6.590;2024-03-06T07:02:03;3.70;99.90
8541;DHT22;4308;51.294;6.590;2024-03-06T07:04:30;3.80;99.90
8541;DHT22;4308;51.294;6.590;2024-03-06T07:06:58;4.00;99.90
8541;DHT22;4308;51.294;6.590;2024-03-06T07:09:25;4.10;99.90
8541;DHT22;4308;51.294;6.590;2024-03-06T07:11:52;4.10;99.90
8541;DHT22;4308;51.294;6.590;2024-03-06T07:14:20;4.20;99.90
8541;DHT22;4308;51.294;6.590;2024-03-06T07:16:51;4.30;99.90
8541;DHT22;4308;51.294;6.590;2024-03-06T07:19:18;4.50;99.90
8541;DHT22;4308;51.294;6.590;2024-03-06T07:21:46;4.70;99.90
8541;DHT22;4308;51.294;6.590;2024-03-06T07:24:13;4.60;99.90
8541;DHT22;4308;51.294;6.590;2024-03-06T07:26:40;4.90;99.90
8541;DHT22;4308;51.294;6.590;2024-03-06T07:29:08;4.90;99.90
8541;DHT22;4308;51.294;6.590;2024-03-06T07:31:35;5.00;99.90
8541;DHT22;4308;51.294;6.590;2024-03-06T07:34:02;5.10;99.90
8541;DHT22;4308;51.294;6.590;2024-03-06T07:36:30;5.30;99.90
8541;DHT22;4308;51.294;6.590;2024-03-06T07:38:57;5.30;99.90
8541;DHT22;4308;51.294;6.590;2024-03-06T07:41:24;5.40;99.90
8541;DHT22;4308;51.294;6.590;2024-03-06T07:43:52;5.50;99.90
8541;DHT22;4308;51.294;6.590;2024-03-06T07:46:19;5.60;99.90
8541;DHT22;4308;51.294;6.590;2024-03-06T07:48:46;5.70;99.90
8541;DHT22;4308;51.294;6.590;2024-03-06T07:51:13;5.80;99.90
8541;DHT22;4308;51.294;6.590;2024-03-06T07:53:41;5.90;99.90
8541;DHT22;4308;51.294;6.590;2024-03-06T07:56:10;6.00;99.90
8541;DHT22;4308;51.294;6.590;2024-03-06T07:58:38;6.10;99.90
8541;DHT22;4308;51.294;6.590;2024-03-06T08:01:06;6.20;99.90
8541;DHT22;4308;51.294;6.590;2024-03-06T08:03:33;6.30;99.90
8541;DHT22;4308;51.294;6.590;2024-03-06T08:06:01;6.40;99.90
8541;DHT22;4308;51.294;6.590;2024-03-06T08:08:28;6.60;99.90
8541;DHT22;4308;51.294;6.590;2024-03-06T08:10:55;6.80;99.90
8541;DHT22;4308;51.294;6.590;2024-03-06T08:13:23;7.00;99.90
8541;DHT22;4308;51.294;6.590;2024-03-06T08:15:50;7.20;99.90
8541;DHT22;4308;51.294;6.590;2024-03-06T08:18:18;7.40;99.90
8541;DHT22;4308;51.294;6.590;2024-03-06T08:20:45;7.60;99.90
8541;DHT22;4308;51.294;6.590;2024-03-06T08:23:13;7.60;99.90
8541;DHT22;4308;51.294;6.590;2024-03-06T08:25:40;7.70;99.90
8541;DHT22;4308;51.294;6.590;2024-03-06T08:28:07;7.80;99.90
8541;DHT22;4308;51.294;6.590;2024-03-06T08:30:35;7.80;99.90
8541;DHT22;4308;51.294;6.590;2024-03-06T08:33:02;7.80;99.90
8541;DHT22;4308;51.294;6.590;2024-03-06T08:35:30;7.90;99.90
8541;DHT22;4308;51.294;6.590;2024-03-06T08:37:57;7.90;99.90
8541;DHT22;4308;51.294;6.590;2024-03-06T08:40:25;8.00;99.90
8541;DHT22;4308;51.294;6.590;2024-03-06T08:42:52;8.00;99.90
8541;DHT22;4308;51.294;6.590;2024-03-06T08:45:20;8.20;99.90
8541;DHT22;4308;51.294;6.590;2024-03-06T08:47:47;8.20;99.90
8541;DHT22;4308;51.294;6.590;2024-03-06T08:50:15;8.30;99.90
8541;DHT22;4308;51.294;6.590;2024-03-06T08:52:42;8.30;99.90
8541;DHT22;4308;51.294;6.590;2024-03-06T08:55:10;8.50;99.90
8541;DHT22;4308;51.294;6.590;2024-03-06T08:57:38;8.60;99.90
8541;DHT22;4308;51.294;6.590;2024-03-06T09:00:07;8.70;99.90
8541;DHT22;4308;51.294;6.590;2024-03-06T09:02:35;8.70;99.90
8541;DHT22;4308;51.294;6.590;2024-03-06T09:05:05;8.80;99.90
8541;DHT22;4308;51.294;6.590;2024-03-06T09:07:33;8.90;99.90
8541;DHT22;4308;51.294;6.590;2024-03-06T09:10:00;9.00;99.90
8541;DHT22;4308;51.294;6.590;2024-03-06T09:12:28;9.00;99.90
8541;DHT22;4308;51.294;6.590;2024-03-06T09:14:55;9.00;99.90
8541;DHT22;4308;51.294;6.590;2024-03-06T09:17:22;9.20;99.90
8541;DHT22;4308;51.294;6.590;2024-03-06T09:19:50;9.30;99.90
8541;DHT22;4308;51.294;6.590;2024-03-06T09:22:34;9.40;99.90
8541;DHT22;4308;51.294;6.590;2024-03-06T09:25:01;9.40;99.90
8541;DHT22;4308;51.294;6.590;2024-03-06T09:27:29;9.50;99.90
8541;DHT22;4308;51.294;6.590;2024-03-06T09:29:56;9.50;99.90
8541;DHT22;4308;51.294;6.590;2024-03-06T09:32:23;9.60;99.90
8541;DHT22;4308;51.294;6.590;2024-03-06T09:34:51;9.70;99.90
8541;DHT22;4308;51.294;6.590;2024-03-06T09:37:19;9.80;99.90
8541;DHT22;4308;51.294;6.590;2024-03-06T09:39:46;9.90;99.90
8541;DHT22;4308;51.294;6.590;2024-03-06T09:42:15;9.90;99.90
8541;DHT22;4308;51.294;6.590;2024-03-06T09:44:43;10.00;99.90
8541;DHT22;4308;51.294;6.590;2024-03-06T09:47:13;10.20;99.90
8541;DHT22;4308;51.294;6.590;2024-03-06T09:49:41;10.30;99.90
8541;DHT22;4308;51.294;6.590;2024-03-06T09:52:08;10.40;99.90
8541;DHT22;4308;51.294;6.590;2024-03-06T09:54:37;10.50;99.90
8541;DHT22;4308;51.294;6.590;2024-03-06T09:57:04;10.60;99.90
8541;DHT22;4308;51.294;6.590;2024-03-06T09:59:32;10.60;99.90
8541;DHT22;4308;51.294;6.590;2024-03-06T10:02:00;10.40;99.90
8541;DHT22;4308;51.294;6.590;2024-03-06T10:04:29;10.60;99.90
8541;DHT22;4308;51.294;6.590;2024-03-06T10:06:58;10.30;99.90
8541;DHT22;4308;51.294;6.590;2024-03-06T10:09:26;10.40;99.90
8541;DHT22;4308;51.294;6.590;2024-03-06T10:11:54;10.50;99.90
8541;DHT22;4308;51.294;6.590;2024-03-06T10:14:21;10.40;99.90
8541;DHT22;4308;51.294;6.590;2024-03-06T10:16:56;10.60;99.90
8541;DHT22;4308;51.294;6.590;2024-03-06T10:19:26;10.80;99.90
8541;DHT22;4308;51.294;6.590;2024-03-06T10:21:54;10.90;99.90
8541;DHT22;4308;51.294;6.590;2024-03-06T10:24:26;11.00;99.90
8541;DHT22;4308;51.294;6.590;2024-03-06T10:26:56;11.00;99.90
8541;DHT22;4308;51.294;6.590;2024-03-06T10:29:25;11.10;99.90
8541;DHT22;4308;51.294;6.590;2024-03-06T10:31:57;11.20;99.90
8541;DHT22;4308;51.294;6.590;2024-03-06T10:34:26;11.40;99.90
8541;DHT22;4308;51.294;6.590;2024-03-06T10:36:55;11.30;99.90
8541;DHT22;4308;51.294;6.590;2024-03-06T10:39:23;11.10;99.90
8541;DHT22;4308;51.294;6.590;2024-03-06T10:41:55;11.20;99.90
8541;DHT22;4308;51.294;6.590;2024-03-06T10:44:24;11.30;99.90
8541;DHT22;4308;51.294;6.590;2024-03-06T10:46:58;11.40;99.90
8541;DHT22;4308;51.294;6.590;2024-03-06T10:49:27;11.50;99.90
8541;DHT22;4308;51.294;6.590;2024-03-06T10:52:13;11.40;99.90
8541;DHT22;4308;51.294;6.590;2024-03-06T10:54:41;11.50;99.90
8541;DHT22;4308;51.294;6.590;2024-03-06T10:57:09;11.50;99.90
8541;DHT22;4308;51.294;6.590;2024-03-06T10:59:37;11.40;99.90
8541;DHT22;4308;51.294;6.590;2024-03-06T11:02:04;11.40;99.90
8541;DHT22;4308;51.294;6.590;2024-03-06T11:04:32;11.50;99.90
8541;DHT22;4308;51.294;6.590;2024-03-06T11:07:01;11.40;99.90
8541;DHT22;4308;51.294;6.590;2024-03-06T11:09:35;11.60;99.90
8541;DHT22;4308;51.294;6.590;2024-03-06T11:12:04;11.80;99.90
8541;DHT22;4308;51.294;6.590;2024-03-06T11:14:32;11.90;99.90
8541;DHT22;4308;51.294;6.590;2024-03-06T11:17:10;12.00;99.90
8541;DHT22;4308;51.294;6.590;2024-03-06T11:33:21;12.00;99.90
8541;DHT22;4308;51.294;6.590;2024-03-06T11:38:42;11.90;99.90
8541;DHT22;4308;51.294;6.590;2024-03-06T11:41:10;12.00;99.90
8541;DHT22;4308;51.294;6.590;2024-03-06T11:43:43;12.10;99.90
8541;DHT22;4308;51.294;6.590;2024-03-06T11:46:11;12.40;99.90
8541;DHT22;4308;51.294;6.590;2024-03-06T11:48:38;12.90;99.90
8541;DHT22;4308;51.294;6.590;2024-03-06T11:51:06;13.20;99.90
8541;DHT22;4308;51.294;6.590;2024-03-06T11:53:34;13.50;99.90
8541;DHT22;4308;51.294;6.590;2024-03-06T11:56:01;13.60;99.90
8541;DHT22;4308;51.294;6.590;2024-03-06T11:58:29;13.50;99.90
8541;DHT22;4308;51.294;6.590;2024-03-06T12:00:56;13.40;99.90
8541;DHT22;4308;51.294;6.590;2024-03-06T12:03:24;13.30;99.90
8541;DHT22;4308;51.294;6.590;2024-03-06T12:05:52;13.40;99.90
8541;DHT22;4308;51.294;6.590;2024-03-06T12:08:19;12.90;99.90
8541;DHT22;4308;51.294;6.590;2024-03-06T12:10:47;12.40;99.90
8541;DHT22;4308;51.294;6.590;2024-03-06T12:13:14;12.20;99.90
8541;DHT22;4308;51.294;6.590;2024-03-06T12:15:44;12.10;99.90
8541;DHT22;4308;51.294;6.590;2024-03-06T12:18:12;12.10;99.90
8541;DHT22;4308;51.294;6.590;2024-03-06T12:20:42;12.00;99.90
8541;DHT22;4308;51.294;6.590;2024-03-06T12:23:10;12.10;99.90
8541;DHT22;4308;51.294;6.590;2024-03-06T12:25:37;11.70;99.90
8541;DHT22;4308;51.294;6.590;2024-03-06T12:28:08;11.60;99.90
8541;DHT22;4308;51.294;6.590;2024-03-06T12:30:42;11.60;99.90
8541;DHT22;4308;51.294;6.590;2024-03-06T12:33:10;11.60;99.90
8541;DHT22;4308;51.294;6.590;2024-03-06T12:35:38;11.50;99.90
8541;DHT22;4308;51.294;6.590;2024-03-06T12:38:17;11.50;99.90
8541;DHT22;4308;51.294;6.590;2024-03-06T12:40:44;11.30;99.90
8541;DHT22;4308;51.294;6.590;2024-03-06T12:43:11;11.30;99.90
8541;DHT22;4308;51.294;6.590;2024-03-06T12:45:39;11.50;99.90
8541;DHT22;4308;51.294;6.590;2024-03-06T12:48:07;11.70;99.90
8541;DHT22;4308;51.294;6.590;2024-03-06T12:50:34;11.60;99.90
8541;DHT22;4308;51.294;6.590;2024-03-06T12:53:01;11.60;99.90
8541;DHT22;4308;51.294;6.590;2024-03-06T12:55:29;11.80;99.90
8541;DHT22;4308;51.294;6.590;2024-03-06T12:57:56;12.00;99.90
8541;DHT22;4308;51.294;6.590;2024-03-06T13:00:24;11.90;99.90
8541;DHT22;4308;51.294;6.590;2024-03-06T13:02:51;12.20;99.90
8541;DHT22;4308;51.294;6.590;2024-03-06T13:05:19;12.40;99.90
8541;DHT22;4308;51.294;6.590;2024-03-06T13:07:46;12.50;99.90
8541;DHT22;4308;51.294;6.590;2024-03-06T13:10:14;12.70;99.90
8541;DHT22;4308;51.294;6.590;2024-03-06T13:12:41;12.60;99.90
8541;DHT22;4308;51.294;6.590;2024-03-06T13:15:09;12.70;99.90
8541;DHT22;4308;51.294;6.590;2024-03-06T13:17:37;12.60;99.90
8541;DHT22;4308;51.294;6.590;2024-03-06T13:20:05;12.70;99.90
8541;DHT22;4308;51.294;6.590;2024-03-06T13:22:33;12.80;99.90
8541;DHT22;4308;51.294;6.590;2024-03-06T13:25:00;12.90;99.90
8541;DHT22;4308;51.294;6.590;2024-03-06T13:27:28;12.80;99.90
8541;DHT22;4308;51.294;6.590;2024-03-06T13:29:55;12.70;99.90
8541;DHT22;4308;51.294;6.590;2024-03-06T13:32:22;12.40;99.90
8541;DHT22;4308;51.294;6.590;2024-03-06T13:34:50;12.60;99.90
8541;DHT22;4308;51.294;6.590;2024-03-06T13:37:18;12.50;99.90
8541;DHT22;4308;51.294;6.590;2024-03-06T13:39:45;12.70;99.90
8541;DHT22;4308;51.294;6.590;2024-03-06T13:42:13;12.80;99.90
8541;DHT22;4308;51.294;6.590;2024-03-06T13:44:40;12.70;99.90
8541;DHT22;4308;51.294;6.590;2024-03-06T13:47:07;12.40;99.90
8541;DHT22;4308;51.294;6.590;2024-03-06T13:49:41;12.40;99.90
8541;DHT22;4308;51.294;6.590;2024-03-06T13:52:10;12.50;99.90
8541;DHT22;4308;51.294;6.590;2024-03-06T13:54:42;12.50;99.90
8541;DHT22;4308;51.294;6.590;2024-03-06T13:57:10;12.70;99.90
8541;DHT22;4308;51.294;6.590;2024-03-06T13:59:37;12.50;99.90
8541;DHT22;4308;51.294;6.590;2024-03-06T14:02:06;12.70;99.90
8541;DHT22;4308;51.294;6.590;2024-03-06T14:04:34;12.50;99.90
8541;DHT22;4308;51.294;6.590;2024-03-06T14:07:01;12.60;99.90
8541;DHT22;4308;51.294;6.590;2024-03-06T14:09:29;12.70;99.90
8541;DHT22;4308;51.294;6.590;2024-03-06T14:11:56;13.00;99.90
8541;DHT22;4308;51.294;6.590;2024-03-06T14:14:24;13.10;99.90
8541;DHT22;4308;51.294;6.590;2024-03-06T14:16:51;13.20;99.90
8541;DHT22;4308;51.294;6.590;2024-03-06T14:19:19;13.20;99.90
8541;DHT22;4308;51.294;6.590;2024-03-06T14:21:46;13.40;99.90
8541;DHT22;4308;51.294;6.590;2024-03-06T14:24:14;13.20;99.90
8541;DHT22;4308;51.294;6.590;2024-03-06T14:26:41;13.20;99.90
8541;DHT22;4308;51.294;6.590;2024-03-06T14:29:09;13.10;99.90
8541;DHT22;4308;51.294;6.590;2024-03-06T14:31:36;13.10;99.90
8541;DHT22;4308;51.294;6.590;2024-03-06T14:34:03;13.30;99.90
8541;DHT22;4308;51.294;6.590;2024-03-06T14:36:33;13.30;99.90
8541;DHT22;4308;51.294;6.590;2024-03-06T14:39:00;13.40;99.90
8541;DHT22;4308;51.294;6.590;2024-03-06T14:41:28;13.50;99.90
8541;DHT22;4308;51.294;6.590;2024-03-06T14:43:55;13.60;99.90
8541;DHT22;4308;51.294;6.590;2024-03-06T14:46:30;13.70;99.90
8541;DHT22;4308;51.294;6.590;2024-03-06T14:49:07;13.70;99.90
8541;DHT22;4308;51.294;6.590;2024-03-06T14:51:34;13.50;99.90
8541;DHT22;4308;51.294;6.590;2024-03-06T14:54:02;13.50;99.90
8541;DHT22;4308;51.294;6.590;2024-03-06T14:56:30;13.60;99.90
8541;DHT22;4308;51.294;6.590;2024-03-06T14:58:58;13.40;99.90
8541;DHT22;4308;51.294;6.590;2024-03-06T15:01:25;13.60;99.90
8541;DHT22;4308;51.294;6.590;2024-03-06T15:03:57;13.40;99.90
8541;DHT22;4308;51.294;6.590;2024-03-06T15:06:25;13.20;99.90
8541;DHT22;4308;51.294;6.590;2024-03-06T15:08:53;13.40;99.90
8541;DHT22;4308;51.294;6.590;2024-03-06T15:11:32;13.60;99.90
8541;DHT22;4308;51.294;6.590;2024-03-06T15:14:10;13.60;99.90
8541;DHT22;4308;51.294;6.590;2024-03-06T15:16:38;13.60;99.90
8541;DHT22;4308;51.294;6.590;2024-03-06T15:19:06;13.60;99.90
8541;DHT22;4308;51.294;6.590;2024-03-06T15:21:34;13.60;99.90
8541;DHT22;4308;51.294;6.590;2024-03-06T15:24:01;13.70;99.90
8541;DHT22;4308;51.294;6.590;2024-03-06T15:26:32;13.70;99.90
8541;DHT22;4308;51.294;6.590;2024-03-06T15:28:59;13.70;99.90
8541;DHT22;4308;51.294;6.590;2024-03-06T15:31:27;13.70;99.90
8541;DHT22;4308;51.294;6.590;2024-03-06T15:33:54;14.20;99.90
8541;DHT22;4308;51.294;6.590;2024-03-06T15:36:22;14.50;99.90
8541;DHT22;4308;51.294;6.590;2024-03-06T15:38:49;14.70;99.90
8541;DHT22;4308;51.294;6.590;2024-03-06T15:41:17;15.00;99.90
8541;DHT22;4308;51.294;6.590;2024-03-06T15:43:47;15.20;99.90
8541;DHT22;4308;51.294;6.590;2024-03-06T15:46:14;15.20;99.90
8541;DHT22;4308;51.294;6.590;2024-03-06T15:48:41;15.30;99.90
8541;DHT22;4308;51.294;6.590;2024-03-06T15:51:09;15.30;99.90
8541;DHT22;4308;51.294;6.590;2024-03-06T15:53:36;15.30;99.90
8541;DHT22;4308;51.294;6.590;2024-03-06T15:56:04;15.00;99.90
8541;DHT22;4308;51.294;6.590;2024-03-06T15:58:31;14.90;99.90
8541;DHT22;4308;51.294;6.590;2024-03-06T16:00:59;14.40;99.90
8541;DHT22;4308;51.294;6.590;2024-03-06T16:03:32;14.00;99.90
8541;DHT22;4308;51.294;6.590;2024-03-06T16:06:00;13.60;99.90
8541;DHT22;4308;51.294;6.590;2024-03-06T16:08:44;13.50;99.90
8541;DHT22;4308;51.294;6.590;2024-03-06T16:11:12;13.10;99.90
8541;DHT22;4308;51.294;6.590;2024-03-06T16:13:42;12.80;99.90
8541;DHT22;4308;51.294;6.590;2024-03-06T16:16:09;12.60;99.90
8541;DHT22;4308;51.294;6.590;2024-03-06T16:18:36;12.40;99.90
8541;DHT22;4308;51.294;6.590;2024-03-06T16:21:04;12.30;99.90
8541;DHT22;4308;51.294;6.590;2024-03-06T16:23:31;12.30;99.90
8541;DHT22;4308;51.294;6.590;2024-03-06T16:26:09;12.30;99.90
8541;DHT22;4308;51.294;6.590;2024-03-06T16:28:56;12.30;99.90
8541;DHT22;4308;51.294;6.590;2024-03-06T16:31:37;12.20;99.90
8541;DHT22;4308;51.294;6.590;2024-03-06T16:34:17;12.30;99.90
8541;DHT22;4308;51.294;6.590;2024-03-06T16:36:50;12.20;99.90
8541;DHT22;4308;51.294;6.590;2024-03-06T16:39:18;12.20;99.90